メインページ
METAR-TAF:

METAR-TAF

空港 :

ラバト, モロッコ

ラバト=サレ空港

緯度: 34-03N, 経度: 006-46W, 海抜: 84m

現時点の気象観測

当レポートは30分前の01:00(UTC)に作成
変向風 2kt
気温 8°C
湿度 93%
気圧 1018 hPa
視程: 6000m
高度1300ftの千切れ雲あり

METAR: GMME 180100Z VRB02KT 6000 BKN013 08/07 Q1018 NOSIG

時間: 01:30 (01:30 UTC)

予報

当レポートは2時間30分前の23:00(UTC)に作成
予報は18日の 00時(UTC)から 19日の 06時(UTC)まで有効
南東の風 4kt
視程: 6000m
高度1600ftの千切れ雲あり
18日の 00時(UTC)から 18日の 07時(UTC)まで一時的に
視程: 3000m
確率 30% :
18日の 02時(UTC)から 18日の 07時(UTC)まで一時的に
視程: 0500m
18日の 10時(UTC)から 18日の 12時(UTC)まで徐々に
北/北西の風 10kt
18日の 18時(UTC)から 18日の 20時(UTC)まで徐々に
の風 6kt
高度1300ftの千切れ雲あり
高度1500ftの千切れ雲あり

TAF: GMME 172300Z 1800/1906 14004KT 6000 BKN016 TEMPO 1800/1807 3000 BR PROB30 TEMPO 1802/1807 0500 FG BECMG 1810/1812 34010KT BECMG 1818/1820 18006KT BKN013 BKN015

4,000以上の空港の気象観測と天気予報(METAR報とTAF報)

利用可能な観測所は地図上に黄色い丸と赤い丸で示す。

丸の上にカーソルを重ねると観測所名を参照できる。

次にクリックすると気象観測と天気予報を参照できる。

マップの切り替え:黒色「×」印の緑ボタンをクリックして拡大、「-」印の緑ボタンをクリックして縮小、緑色の三角印をクリックして隣りの地図に切り替え


METAR-TAF: